sensor_id;sensor_type;location;lat;lon;timestamp;P1;durP1;ratioP1;P2;durP2;ratioP2
23670;SDS011;12012;51.998;7.614;2024-01-07T00:01:35;34.28;;;18.70;;
23670;SDS011;12012;51.998;7.614;2024-01-07T00:04:01;31.90;;;18.45;;
23670;SDS011;12012;51.998;7.614;2024-01-07T00:06:26;31.65;;;18.58;;
23670;SDS011;12012;51.998;7.614;2024-01-07T00:08:52;32.05;;;18.42;;
23670;SDS011;12012;51.998;7.614;2024-01-07T00:11:17;32.17;;;19.33;;
23670;SDS011;12012;51.998;7.614;2024-01-07T00:13:43;31.98;;;19.83;;
23670;SDS011;12012;51.998;7.614;2024-01-07T00:16:09;30.50;;;17.95;;
23670;SDS011;12012;51.998;7.614;2024-01-07T00:18:35;27.85;;;17.75;;
23670;SDS011;12012;51.998;7.614;2024-01-07T00:21:00;29.52;;;17.52;;
23670;SDS011;12012;51.998;7.614;2024-01-07T00:23:26;31.42;;;17.67;;
23670;SDS011;12012;51.998;7.614;2024-01-07T00:25:52;22.90;;;15.23;;
23670;SDS011;12012;51.998;7.614;2024-01-07T00:28:17;26.98;;;16.02;;
23670;SDS011;12012;51.998;7.614;2024-01-07T00:30:43;26.83;;;15.45;;
23670;SDS011;12012;51.998;7.614;2024-01-07T00:33:08;23.90;;;14.52;;
23670;SDS011;12012;51.998;7.614;2024-01-07T00:35:34;25.05;;;14.50;;
23670;SDS011;12012;51.998;7.614;2024-01-07T00:37:59;23.75;;;14.95;;
23670;SDS011;12012;51.998;7.614;2024-01-07T00:40:25;23.13;;;15.40;;
23670;SDS011;12012;51.998;7.614;2024-01-07T00:42:51;23.67;;;14.57;;
23670;SDS011;12012;51.998;7.614;2024-01-07T00:45:17;23.13;;;14.30;;
23670;SDS011;12012;51.998;7.614;2024-01-07T00:47:43;22.20;;;14.00;;
23670;SDS011;12012;51.998;7.614;2024-01-07T00:50:09;24.40;;;14.68;;
23670;SDS011;12012;51.998;7.614;2024-01-07T00:52:34;24.20;;;15.05;;
23670;SDS011;12012;51.998;7.614;2024-01-07T00:55:02;27.02;;;15.90;;
23670;SDS011;12012;51.998;7.614;2024-01-07T00:57:29;26.65;;;15.57;;
23670;SDS011;12012;51.998;7.614;2024-01-07T00:59:54;26.50;;;16.63;;
23670;SDS011;12012;51.998;7.614;2024-01-07T01:02:20;24.50;;;15.32;;
23670;SDS011;12012;51.998;7.614;2024-01-07T01:04:45;28.45;;;17.38;;
23670;SDS011;12012;51.998;7.614;2024-01-07T01:07:11;25.95;;;16.10;;
23670;SDS011;12012;51.998;7.614;2024-01-07T01:09:37;25.42;;;15.77;;
23670;SDS011;12012;51.998;7.614;2024-01-07T01:12:02;22.60;;;14.70;;
23670;SDS011;12012;51.998;7.614;2024-01-07T01:14:28;22.52;;;15.05;;
23670;SDS011;12012;51.998;7.614;2024-01-07T01:16:53;24.98;;;15.23;;
23670;SDS011;12012;51.998;7.614;2024-01-07T01:19:19;22.63;;;13.80;;
23670;SDS011;12012;51.998;7.614;2024-01-07T01:21:45;24.58;;;14.63;;
23670;SDS011;12012;51.998;7.614;2024-01-07T01:24:11;22.88;;;14.75;;
23670;SDS011;12012;51.998;7.614;2024-01-07T01:26:37;22.85;;;14.52;;
23670;SDS011;12012;51.998;7.614;2024-01-07T01:29:04;22.70;;;14.88;;
23670;SDS011;12012;51.998;7.614;2024-01-07T01:31:30;22.23;;;13.80;;
23670;SDS011;12012;51.998;7.614;2024-01-07T01:33:55;21.92;;;14.18;;
23670;SDS011;12012;51.998;7.614;2024-01-07T01:36:21;21.83;;;14.10;;
23670;SDS011;12012;51.998;7.614;2024-01-07T01:38:46;24.98;;;13.95;;
23670;SDS011;12012;51.998;7.614;2024-01-07T01:41:13;21.38;;;13.75;;
23670;SDS011;12012;51.998;7.614;2024-01-07T01:43:39;23.02;;;13.45;;
23670;SDS011;12012;51.998;7.614;2024-01-07T01:46:05;24.13;;;15.00;;
23670;SDS011;12012;51.998;7.614;2024-01-07T01:48:30;25.80;;;16.27;;
23670;SDS011;12012;51.998;7.614;2024-01-07T01:50:56;27.98;;;15.95;;
23670;SDS011;12012;51.998;7.614;2024-01-07T01:53:23;22.63;;;14.40;;
23670;SDS011;12012;51.998;7.614;2024-01-07T01:55:55;26.08;;;15.20;;
23670;SDS011;12012;51.998;7.614;2024-01-07T01:58:22;24.67;;;14.95;;
23670;SDS011;12012;51.998;7.614;2024-01-07T02:00:48;26.50;;;16.05;;
23670;SDS011;12012;51.998;7.614;2024-01-07T02:03:15;23.40;;;14.35;;
23670;SDS011;12012;51.998;7.614;2024-01-07T02:05:41;24.00;;;15.02;;
23670;SDS011;12012;51.998;7.614;2024-01-07T02:08:07;23.02;;;15.20;;
23670;SDS011;12012;51.998;7.614;2024-01-07T02:10:34;23.40;;;14.20;;
23670;SDS011;12012;51.998;7.614;2024-01-07T02:13:01;24.73;;;15.18;;
23670;SDS011;12012;51.998;7.614;2024-01-07T02:15:28;23.23;;;15.93;;
23670;SDS011;12012;51.998;7.614;2024-01-07T02:17:54;26.10;;;16.08;;
23670;SDS011;12012;51.998;7.614;2024-01-07T02:20:19;26.05;;;14.70;;
23670;SDS011;12012;51.998;7.614;2024-01-07T02:22:45;24.40;;;15.18;;
23670;SDS011;12012;51.998;7.614;2024-01-07T02:25:10;24.15;;;15.35;;
23670;SDS011;12012;51.998;7.614;2024-01-07T02:27:36;23.40;;;14.63;;
23670;SDS011;12012;51.998;7.614;2024-01-07T02:30:02;24.67;;;15.27;;
23670;SDS011;12012;51.998;7.614;2024-01-07T02:32:27;25.08;;;15.70;;
23670;SDS011;12012;51.998;7.614;2024-01-07T02:34:53;26.27;;;14.63;;
23670;SDS011;12012;51.998;7.614;2024-01-07T02:37:18;23.27;;;14.60;;
23670;SDS011;12012;51.998;7.614;2024-01-07T02:39:45;23.65;;;14.98;;
23670;SDS011;12012;51.998;7.614;2024-01-07T02:42:10;23.48;;;15.05;;
23670;SDS011;12012;51.998;7.614;2024-01-07T02:44:36;26.15;;;16.15;;
23670;SDS011;12012;51.998;7.614;2024-01-07T02:47:01;26.27;;;15.52;;
23670;SDS011;12012;51.998;7.614;2024-01-07T02:49:27;28.98;;;16.33;;
23670;SDS011;12012;51.998;7.614;2024-01-07T02:51:53;23.70;;;14.52;;
23670;SDS011;12012;51.998;7.614;2024-01-07T02:54:19;26.20;;;16.35;;
23670;SDS011;12012;51.998;7.614;2024-01-07T02:56:44;29.90;;;17.65;;
23670;SDS011;12012;51.998;7.614;2024-01-07T02:59:10;28.40;;;16.17;;
23670;SDS011;12012;51.998;7.614;2024-01-07T03:01:35;28.05;;;16.55;;
23670;SDS011;12012;51.998;7.614;2024-01-07T03:04:05;25.48;;;16.17;;
23670;SDS011;12012;51.998;7.614;2024-01-07T03:06:32;25.58;;;15.77;;
23670;SDS011;12012;51.998;7.614;2024-01-07T03:08:58;30.48;;;17.05;;
23670;SDS011;12012;51.998;7.614;2024-01-07T03:11:23;26.02;;;14.38;;
23670;SDS011;12012;51.998;7.614;2024-01-07T03:13:49;31.33;;;16.63;;
23670;SDS011;12012;51.998;7.614;2024-01-07T03:16:20;25.33;;;15.50;;
23670;SDS011;12012;51.998;7.614;2024-01-07T03:18:50;27.40;;;16.73;;
23670;SDS011;12012;51.998;7.614;2024-01-07T03:21:19;25.70;;;15.32;;
23670;SDS011;12012;51.998;7.614;2024-01-07T03:23:46;24.40;;;15.52;;
23670;SDS011;12012;51.998;7.614;2024-01-07T03:26:12;23.15;;;14.60;;
23670;SDS011;12012;51.998;7.614;2024-01-07T03:28:39;22.23;;;14.77;;
23670;SDS011;12012;51.998;7.614;2024-01-07T03:31:05;21.58;;;14.10;;
23670;SDS011;12012;51.998;7.614;2024-01-07T03:33:33;23.20;;;15.07;;
23670;SDS011;12012;51.998;7.614;2024-01-07T03:35:58;24.38;;;13.98;;
23670;SDS011;12012;51.998;7.614;2024-01-07T03:38:24;23.92;;;15.13;;
23670;SDS011;12012;51.998;7.614;2024-01-07T03:40:49;26.20;;;15.80;;
23670;SDS011;12012;51.998;7.614;2024-01-07T03:43:15;26.20;;;15.40;;
23670;SDS011;12012;51.998;7.614;2024-01-07T03:45:40;27.30;;;16.58;;
23670;SDS011;12012;51.998;7.614;2024-01-07T03:48:06;24.88;;;15.40;;
23670;SDS011;12012;51.998;7.614;2024-01-07T03:50:32;25.30;;;16.05;;
23670;SDS011;12012;51.998;7.614;2024-01-07T03:52:58;26.23;;;16.00;;
23670;SDS011;12012;51.998;7.614;2024-01-07T03:55:23;26.60;;;16.85;;
23670;SDS011;12012;51.998;7.614;2024-01-07T03:57:49;27.98;;;15.57;;
23670;SDS011;12012;51.998;7.614;2024-01-07T04:00:14;31.20;;;17.02;;
23670;SDS011;12012;51.998;7.614;2024-01-07T04:02:41;32.88;;;17.50;;
23670;SDS011;12012;51.998;7.614;2024-01-07T04:05:07;28.25;;;17.50;;
23670;SDS011;12012;51.998;7.614;2024-01-07T04:07:34;29.92;;;16.83;;
23670;SDS011;12012;51.998;7.614;2024-01-07T04:09:59;24.95;;;16.23;;
23670;SDS011;12012;51.998;7.614;2024-01-07T04:12:25;27.15;;;16.80;;
23670;SDS011;12012;51.998;7.614;2024-01-07T04:14:50;29.65;;;18.15;;
23670;SDS011;12012;51.998;7.614;2024-01-07T04:17:16;31.83;;;18.65;;
23670;SDS011;12012;51.998;7.614;2024-01-07T04:19:41;30.20;;;18.52;;
23670;SDS011;12012;51.998;7.614;2024-01-07T04:22:07;27.70;;;17.13;;
23670;SDS011;12012;51.998;7.614;2024-01-07T04:24:32;24.75;;;16.13;;
23670;SDS011;12012;51.998;7.614;2024-01-07T04:26:58;27.35;;;18.30;;
23670;SDS011;12012;51.998;7.614;2024-01-07T04:29:23;28.30;;;16.65;;
23670;SDS011;12012;51.998;7.614;2024-01-07T04:31:49;30.45;;;17.80;;
23670;SDS011;12012;51.998;7.614;2024-01-07T04:34:14;25.85;;;16.17;;
23670;SDS011;12012;51.998;7.614;2024-01-07T04:36:40;26.77;;;17.35;;
23670;SDS011;12012;51.998;7.614;2024-01-07T04:39:06;28.77;;;16.73;;
23670;SDS011;12012;51.998;7.614;2024-01-07T04:41:32;25.05;;;16.65;;
23670;SDS011;12012;51.998;7.614;2024-01-07T04:43:57;26.60;;;16.75;;
23670;SDS011;12012;51.998;7.614;2024-01-07T04:46:23;25.30;;;16.25;;
23670;SDS011;12012;51.998;7.614;2024-01-07T04:48:48;27.98;;;15.50;;
23670;SDS011;12012;51.998;7.614;2024-01-07T04:51:14;23.73;;;15.00;;
23670;SDS011;12012;51.998;7.614;2024-01-07T04:53:39;24.33;;;15.25;;
23670;SDS011;12012;51.998;7.614;2024-01-07T04:56:05;26.23;;;15.50;;
23670;SDS011;12012;51.998;7.614;2024-01-07T04:58:31;21.02;;;13.70;;
23670;SDS011;12012;51.998;7.614;2024-01-07T05:00:56;21.60;;;14.02;;
23670;SDS011;12012;51.998;7.614;2024-01-07T05:03:22;23.63;;;14.32;;
23670;SDS011;12012;51.998;7.614;2024-01-07T05:05:47;22.30;;;13.52;;
23670;SDS011;12012;51.998;7.614;2024-01-07T05:08:13;21.70;;;14.25;;
23670;SDS011;12012;51.998;7.614;2024-01-07T05:10:38;22.17;;;14.23;;
23670;SDS011;12012;51.998;7.614;2024-01-07T05:13:04;22.98;;;13.70;;
23670;SDS011;12012;51.998;7.614;2024-01-07T05:15:31;21.48;;;13.65;;
23670;SDS011;12012;51.998;7.614;2024-01-07T05:17:57;20.80;;;13.77;;
23670;SDS011;12012;51.998;7.614;2024-01-07T05:20:23;21.95;;;13.23;;
23670;SDS011;12012;51.998;7.614;2024-01-07T05:22:49;22.77;;;13.52;;
23670;SDS011;12012;51.998;7.614;2024-01-07T05:25:14;21.95;;;13.65;;
23670;SDS011;12012;51.998;7.614;2024-01-07T05:27:40;22.48;;;14.15;;
23670;SDS011;12012;51.998;7.614;2024-01-07T05:30:05;24.15;;;14.40;;
23670;SDS011;12012;51.998;7.614;2024-01-07T05:32:32;23.58;;;13.43;;
23670;SDS011;12012;51.998;7.614;2024-01-07T05:34:58;21.85;;;14.45;;
23670;SDS011;12012;51.998;7.614;2024-01-07T05:37:24;23.50;;;14.52;;
23670;SDS011;12012;51.998;7.614;2024-01-07T05:39:50;21.48;;;14.15;;
23670;SDS011;12012;51.998;7.614;2024-01-07T05:42:15;23.20;;;13.77;;
23670;SDS011;12012;51.998;7.614;2024-01-07T05:44:41;22.27;;;13.98;;
23670;SDS011;12012;51.998;7.614;2024-01-07T05:47:07;21.42;;;13.48;;
23670;SDS011;12012;51.998;7.614;2024-01-07T05:49:32;22.23;;;13.82;;
23670;SDS011;12012;51.998;7.614;2024-01-07T05:51:58;24.10;;;14.02;;
23670;SDS011;12012;51.998;7.614;2024-01-07T05:54:23;23.08;;;14.32;;
23670;SDS011;12012;51.998;7.614;2024-01-07T05:56:49;22.83;;;12.77;;
23670;SDS011;12012;51.998;7.614;2024-01-07T05:59:14;21.35;;;13.68;;
23670;SDS011;12012;51.998;7.614;2024-01-07T06:01:40;23.33;;;13.88;;
23670;SDS011;12012;51.998;7.614;2024-01-07T06:04:05;25.63;;;13.95;;
23670;SDS011;12012;51.998;7.614;2024-01-07T06:06:31;21.05;;;13.80;;
23670;SDS011;12012;51.998;7.614;2024-01-07T06:08:58;20.75;;;13.65;;
23670;SDS011;12012;51.998;7.614;2024-01-07T06:11:24;21.83;;;14.15;;
23670;SDS011;12012;51.998;7.614;2024-01-07T06:13:49;22.70;;;14.05;;
23670;SDS011;12012;51.998;7.614;2024-01-07T06:16:15;23.92;;;14.52;;
23670;SDS011;12012;51.998;7.614;2024-01-07T06:18:40;27.20;;;14.60;;
23670;SDS011;12012;51.998;7.614;2024-01-07T06:21:06;20.58;;;13.52;;
23670;SDS011;12012;51.998;7.614;2024-01-07T06:23:35;23.40;;;14.18;;
23670;SDS011;12012;51.998;7.614;2024-01-07T06:26:02;27.10;;;15.30;;
23670;SDS011;12012;51.998;7.614;2024-01-07T06:28:28;25.17;;;15.10;;
23670;SDS011;12012;51.998;7.614;2024-01-07T06:30:54;23.90;;;14.88;;
23670;SDS011;12012;51.998;7.614;2024-01-07T06:33:19;20.20;;;13.05;;
23670;SDS011;12012;51.998;7.614;2024-01-07T06:35:45;21.02;;;13.48;;
23670;SDS011;12012;51.998;7.614;2024-01-07T06:38:11;23.35;;;13.85;;
23670;SDS011;12012;51.998;7.614;2024-01-07T06:40:37;22.25;;;13.70;;
23670;SDS011;12012;51.998;7.614;2024-01-07T06:43:02;24.25;;;14.48;;
23670;SDS011;12012;51.998;7.614;2024-01-07T06:45:28;23.45;;;13.90;;
23670;SDS011;12012;51.998;7.614;2024-01-07T06:47:53;21.92;;;13.68;;
23670;SDS011;12012;51.998;7.614;2024-01-07T06:50:19;25.17;;;13.90;;
23670;SDS011;12012;51.998;7.614;2024-01-07T06:52:45;22.52;;;14.70;;
23670;SDS011;12012;51.998;7.614;2024-01-07T06:55:11;23.92;;;14.48;;
23670;SDS011;12012;51.998;7.614;2024-01-07T06:57:37;22.17;;;13.88;;
23670;SDS011;12012;51.998;7.614;2024-01-07T07:00:02;23.08;;;14.50;;
23670;SDS011;12012;51.998;7.614;2024-01-07T07:02:29;21.63;;;14.18;;
23670;SDS011;12012;51.998;7.614;2024-01-07T07:04:54;22.98;;;13.77;;
23670;SDS011;12012;51.998;7.614;2024-01-07T07:07:20;23.00;;;13.18;;
23670;SDS011;12012;51.998;7.614;2024-01-07T07:09:45;19.95;;;12.65;;
23670;SDS011;12012;51.998;7.614;2024-01-07T07:12:12;19.90;;;13.40;;
23670;SDS011;12012;51.998;7.614;2024-01-07T07:14:37;19.63;;;12.95;;
23670;SDS011;12012;51.998;7.614;2024-01-07T07:17:03;17.95;;;11.98;;
23670;SDS011;12012;51.998;7.614;2024-01-07T07:19:28;17.95;;;11.90;;
23670;SDS011;12012;51.998;7.614;2024-01-07T07:21:54;19.90;;;11.55;;
23670;SDS011;12012;51.998;7.614;2024-01-07T07:24:20;16.40;;;11.10;;
23670;SDS011;12012;51.998;7.614;2024-01-07T07:26:45;13.95;;;9.75;;
23670;SDS011;12012;51.998;7.614;2024-01-07T07:29:11;13.23;;;9.32;;
23670;SDS011;12012;51.998;7.614;2024-01-07T07:31:36;13.15;;;9.13;;
23670;SDS011;12012;51.998;7.614;2024-01-07T07:34:03;13.48;;;8.85;;
23670;SDS011;12012;51.998;7.614;2024-01-07T07:36:29;13.57;;;8.80;;
23670;SDS011;12012;51.998;7.614;2024-01-07T07:38:54;13.00;;;8.63;;
23670;SDS011;12012;51.998;7.614;2024-01-07T07:41:20;15.43;;;9.10;;
23670;SDS011;12012;51.998;7.614;2024-01-07T07:43:45;13.68;;;9.38;;
23670;SDS011;12012;51.998;7.614;2024-01-07T07:46:11;16.80;;;9.65;;
23670;SDS011;12012;51.998;7.614;2024-01-07T07:48:37;15.52;;;9.30;;
23670;SDS011;12012;51.998;7.614;2024-01-07T07:51:02;14.75;;;8.75;;
23670;SDS011;12012;51.998;7.614;2024-01-07T07:53:28;16.25;;;9.10;;
23670;SDS011;12012;51.998;7.614;2024-01-07T07:55:54;15.63;;;9.15;;
23670;SDS011;12012;51.998;7.614;2024-01-07T07:58:19;14.23;;;8.95;;
23670;SDS011;12012;51.998;7.614;2024-01-07T08:00:45;14.77;;;8.48;;
23670;SDS011;12012;51.998;7.614;2024-01-07T08:03:10;13.27;;;8.45;;
23670;SDS011;12012;51.998;7.614;2024-01-07T08:05:36;13.90;;;7.78;;
23670;SDS011;12012;51.998;7.614;2024-01-07T08:08:01;14.52;;;7.95;;
23670;SDS011;12012;51.998;7.614;2024-01-07T08:10:27;13.15;;;8.63;;
23670;SDS011;12012;51.998;7.614;2024-01-07T08:12:53;15.23;;;9.13;;
23670;SDS011;12012;51.998;7.614;2024-01-07T08:15:19;13.82;;;7.97;;
23670;SDS011;12012;51.998;7.614;2024-01-07T08:17:45;13.00;;;7.88;;
23670;SDS011;12012;51.998;7.614;2024-01-07T08:20:10;11.75;;;7.75;;
23670;SDS011;12012;51.998;7.614;2024-01-07T08:22:36;12.55;;;7.47;;
23670;SDS011;12012;51.998;7.614;2024-01-07T08:25:02;12.77;;;8.13;;
23670;SDS011;12012;51.998;7.614;2024-01-07T08:27:28;12.85;;;7.97;;
23670;SDS011;12012;51.998;7.614;2024-01-07T08:29:54;14.00;;;7.57;;
23670;SDS011;12012;51.998;7.614;2024-01-07T08:32:19;12.70;;;7.40;;
23670;SDS011;12012;51.998;7.614;2024-01-07T08:34:47;12.13;;;7.40;;
23670;SDS011;12012;51.998;7.614;2024-01-07T08:37:13;12.48;;;7.18;;
23670;SDS011;12012;51.998;7.614;2024-01-07T08:39:38;13.05;;;8.00;;
23670;SDS011;12012;51.998;7.614;2024-01-07T08:42:04;10.85;;;7.68;;
23670;SDS011;12012;51.998;7.614;2024-01-07T08:44:30;10.57;;;7.15;;
23670;SDS011;12012;51.998;7.614;2024-01-07T08:46:55;12.35;;;6.78;;
23670;SDS011;12012;51.998;7.614;2024-01-07T08:49:21;12.07;;;7.13;;
23670;SDS011;12012;51.998;7.614;2024-01-07T08:51:47;10.90;;;7.10;;
23670;SDS011;12012;51.998;7.614;2024-01-07T08:54:12;10.65;;;7.43;;
23670;SDS011;12012;51.998;7.614;2024-01-07T08:56:38;10.82;;;6.82;;
23670;SDS011;12012;51.998;7.614;2024-01-07T08:59:04;12.10;;;7.38;;
23670;SDS011;12012;51.998;7.614;2024-01-07T09:01:30;10.07;;;6.25;;
23670;SDS011;12012;51.998;7.614;2024-01-07T09:03:55;8.25;;;5.80;;
23670;SDS011;12012;51.998;7.614;2024-01-07T09:06:21;9.07;;;5.68;;
23670;SDS011;12012;51.998;7.614;2024-01-07T09:08:46;10.35;;;5.80;;
23670;SDS011;12012;51.998;7.614;2024-01-07T09:11:12;8.45;;;5.78;;
23670;SDS011;12012;51.998;7.614;2024-01-07T09:13:38;9.02;;;5.35;;
23670;SDS011;12012;51.998;7.614;2024-01-07T09:16:03;9.20;;;5.45;;
23670;SDS011;12012;51.998;7.614;2024-01-07T09:18:29;9.73;;;5.80;;
23670;SDS011;12012;51.998;7.614;2024-01-07T09:20:55;7.90;;;5.25;;
23670;SDS011;12012;51.998;7.614;2024-01-07T09:23:21;10.32;;;5.30;;
23670;SDS011;12012;51.998;7.614;2024-01-07T09:25:47;8.25;;;5.63;;
23670;SDS011;12012;51.998;7.614;2024-01-07T09:28:14;10.02;;;5.85;;
23670;SDS011;12012;51.998;7.614;2024-01-07T09:30:39;12.60;;;7.47;;
23670;SDS011;12012;51.998;7.614;2024-01-07T09:33:05;12.25;;;7.35;;
23670;SDS011;12012;51.998;7.614;2024-01-07T09:35:30;11.23;;;6.65;;
23670;SDS011;12012;51.998;7.614;2024-01-07T09:37:56;20.73;;;8.60;;
23670;SDS011;12012;51.998;7.614;2024-01-07T09:40:22;15.32;;;6.90;;
23670;SDS011;12012;51.998;7.614;2024-01-07T09:42:47;11.02;;;5.65;;
23670;SDS011;12012;51.998;7.614;2024-01-07T09:45:13;11.82;;;7.00;;
23670;SDS011;12012;51.998;7.614;2024-01-07T09:47:40;9.68;;;5.32;;
23670;SDS011;12012;51.998;7.614;2024-01-07T09:50:08;12.57;;;6.25;;
23670;SDS011;12012;51.998;7.614;2024-01-07T09:52:35;7.90;;;5.47;;
23670;SDS011;12012;51.998;7.614;2024-01-07T09:55:02;9.95;;;4.95;;
23670;SDS011;12012;51.998;7.614;2024-01-07T09:57:31;8.60;;;5.03;;
23670;SDS011;12012;51.998;7.614;2024-01-07T09:59:58;7.28;;;4.43;;
23670;SDS011;12012;51.998;7.614;2024-01-07T10:02:26;7.50;;;4.65;;
23670;SDS011;12012;51.998;7.614;2024-01-07T10:04:51;7.75;;;4.55;;
23670;SDS011;12012;51.998;7.614;2024-01-07T10:07:17;7.97;;;4.78;;
23670;SDS011;12012;51.998;7.614;2024-01-07T10:09:42;11.63;;;5.13;;
23670;SDS011;12012;51.998;7.614;2024-01-07T10:12:08;7.20;;;4.38;;
23670;SDS011;12012;51.998;7.614;2024-01-07T10:14:34;9.68;;;4.97;;
23670;SDS011;12012;51.998;7.614;2024-01-07T10:17:00;5.53;;;3.95;;
23670;SDS011;12012;51.998;7.614;2024-01-07T10:19:26;7.95;;;5.07;;
23670;SDS011;12012;51.998;7.614;2024-01-07T10:22:01;7.05;;;4.70;;
23670;SDS011;12012;51.998;7.614;2024-01-07T10:24:38;5.78;;;4.40;;
23670;SDS011;12012;51.998;7.614;2024-01-07T10:27:05;6.30;;;3.92;;
23670;SDS011;12012;51.998;7.614;2024-01-07T10:29:32;7.07;;;3.75;;
23670;SDS011;12012;51.998;7.614;2024-01-07T10:31:58;7.28;;;4.13;;
23670;SDS011;12012;51.998;7.614;2024-01-07T10:34:27;7.05;;;4.53;;
23670;SDS011;12012;51.998;7.614;2024-01-07T10:37:01;7.65;;;5.05;;
23670;SDS011;12012;51.998;7.614;2024-01-07T10:39:28;7.63;;;4.43;;
23670;SDS011;12012;51.998;7.614;2024-01-07T10:41:54;6.70;;;3.95;;
23670;SDS011;12012;51.998;7.614;2024-01-07T10:44:24;7.95;;;4.45;;
23670;SDS011;12012;51.998;7.614;2024-01-07T10:46:55;6.57;;;4.78;;
23670;SDS011;12012;51.998;7.614;2024-01-07T10:49:21;9.63;;;5.10;;
23670;SDS011;12012;51.998;7.614;2024-01-07T10:54:25;30.48;;;10.07;;
23670;SDS011;12012;51.998;7.614;2024-01-07T10:56:54;24.35;;;7.55;;
23670;SDS011;12012;51.998;7.614;2024-01-07T10:59:23;41.05;;;11.20;;
23670;SDS011;12012;51.998;7.614;2024-01-07T11:01:50;21.08;;;7.60;;
23670;SDS011;12012;51.998;7.614;2024-01-07T11:04:17;22.70;;;7.00;;
23670;SDS011;12012;51.998;7.614;2024-01-07T11:06:51;42.85;;;12.82;;
23670;SDS011;12012;51.998;7.614;2024-01-07T11:12:00;36.53;;;18.95;;
23670;SDS011;12012;51.998;7.614;2024-01-07T11:17:03;16.92;;;12.10;;
23670;SDS011;12012;51.998;7.614;2024-01-07T11:19:29;18.02;;;9.57;;
23670;SDS011;12012;51.998;7.614;2024-01-07T11:24:56;5.72;;;4.05;;
23670;SDS011;12012;51.998;7.614;2024-01-07T11:27:24;6.07;;;4.05;;
23670;SDS011;12012;51.998;7.614;2024-01-07T11:29:56;4.68;;;3.50;;
23670;SDS011;12012;51.998;7.614;2024-01-07T11:32:32;6.60;;;4.55;;
23670;SDS011;12012;51.998;7.614;2024-01-07T11:34:59;14.48;;;6.80;;
23670;SDS011;12012;51.998;7.614;2024-01-07T11:37:25;8.75;;;5.20;;
23670;SDS011;12012;51.998;7.614;2024-01-07T11:39:51;7.55;;;4.88;;
23670;SDS011;12012;51.998;7.614;2024-01-07T11:42:20;4.95;;;4.00;;
23670;SDS011;12012;51.998;7.614;2024-01-07T11:44:50;5.72;;;4.07;;
23670;SDS011;12012;51.998;7.614;2024-01-07T11:49:44;6.15;;;4.45;;
23670;SDS011;12012;51.998;7.614;2024-01-07T11:52:11;6.32;;;3.88;;
23670;SDS011;12012;51.998;7.614;2024-01-07T11:54:37;7.15;;;4.30;;
23670;SDS011;12012;51.998;7.614;2024-01-07T11:57:04;7.03;;;4.00;;
23670;SDS011;12012;51.998;7.614;2024-01-07T11:59:30;6.85;;;4.25;;
23670;SDS011;12012;51.998;7.614;2024-01-07T12:01:55;6.25;;;3.90;;
23670;SDS011;12012;51.998;7.614;2024-01-07T12:04:21;5.35;;;3.97;;
23670;SDS011;12012;51.998;7.614;2024-01-07T12:06:47;5.97;;;3.97;;
23670;SDS011;12012;51.998;7.614;2024-01-07T12:09:13;6.38;;;3.97;;
23670;SDS011;12012;51.998;7.614;2024-01-07T12:11:39;5.43;;;4.05;;
23670;SDS011;12012;51.998;7.614;2024-01-07T12:14:06;5.35;;;3.75;;
23670;SDS011;12012;51.998;7.614;2024-01-07T12:16:33;6.40;;;4.20;;
23670;SDS011;12012;51.998;7.614;2024-01-07T12:18:59;6.28;;;3.63;;
23670;SDS011;12012;51.998;7.614;2024-01-07T12:21:25;6.00;;;3.92;;
23670;SDS011;12012;51.998;7.614;2024-01-07T12:23:52;5.38;;;3.72;;
23670;SDS011;12012;51.998;7.614;2024-01-07T12:26:19;6.20;;;3.90;;
23670;SDS011;12012;51.998;7.614;2024-01-07T12:28:45;6.53;;;4.10;;
23670;SDS011;12012;51.998;7.614;2024-01-07T12:31:18;4.90;;;3.95;;
23670;SDS011;12012;51.998;7.614;2024-01-07T12:33:44;5.57;;;3.40;;
23670;SDS011;12012;51.998;7.614;2024-01-07T12:36:09;8.48;;;4.53;;
23670;SDS011;12012;51.998;7.614;2024-01-07T12:38:37;6.50;;;3.92;;
23670;SDS011;12012;51.998;7.614;2024-01-07T12:41:03;5.40;;;4.10;;
23670;SDS011;12012;51.998;7.614;2024-01-07T12:43:29;6.30;;;4.15;;
23670;SDS011;12012;51.998;7.614;2024-01-07T12:45:55;5.13;;;3.72;;
23670;SDS011;12012;51.998;7.614;2024-01-07T12:48:22;5.30;;;3.72;;
23670;SDS011;12012;51.998;7.614;2024-01-07T12:50:48;5.07;;;3.38;;
23670;SDS011;12012;51.998;7.614;2024-01-07T12:53:13;6.72;;;3.85;;
23670;SDS011;12012;51.998;7.614;2024-01-07T12:55:39;5.32;;;3.78;;
23670;SDS011;12012;51.998;7.614;2024-01-07T12:58:05;9.15;;;4.78;;
23670;SDS011;12012;51.998;7.614;2024-01-07T13:00:31;5.43;;;4.25;;
23670;SDS011;12012;51.998;7.614;2024-01-07T13:02:57;7.95;;;3.85;;
23670;SDS011;12012;51.998;7.614;2024-01-07T13:05:22;5.90;;;3.40;;
23670;SDS011;12012;51.998;7.614;2024-01-07T13:07:48;4.28;;;3.70;;
23670;SDS011;12012;51.998;7.614;2024-01-07T13:10:15;4.50;;;3.45;;
23670;SDS011;12012;51.998;7.614;2024-01-07T13:12:40;6.22;;;4.22;;
23670;SDS011;12012;51.998;7.614;2024-01-07T13:15:07;6.20;;;3.92;;
23670;SDS011;12012;51.998;7.614;2024-01-07T13:17:33;7.00;;;3.88;;
23670;SDS011;12012;51.998;7.614;2024-01-07T13:19:59;7.43;;;4.53;;
23670;SDS011;12012;51.998;7.614;2024-01-07T13:22:25;6.57;;;3.63;;
23670;SDS011;12012;51.998;7.614;2024-01-07T13:24:50;6.07;;;3.67;;
23670;SDS011;12012;51.998;7.614;2024-01-07T13:27:16;6.20;;;3.40;;
23670;SDS011;12012;51.998;7.614;2024-01-07T13:29:44;5.18;;;3.42;;
23670;SDS011;12012;51.998;7.614;2024-01-07T13:32:13;6.65;;;3.45;;
23670;SDS011;12012;51.998;7.614;2024-01-07T13:34:42;4.47;;;3.03;;
23670;SDS011;12012;51.998;7.614;2024-01-07T13:37:08;4.88;;;3.15;;
23670;SDS011;12012;51.998;7.614;2024-01-07T13:39:33;7.00;;;3.50;;
23670;SDS011;12012;51.998;7.614;2024-01-07T13:41:59;4.50;;;3.10;;
23670;SDS011;12012;51.998;7.614;2024-01-07T13:44:24;3.70;;;2.70;;
23670;SDS011;12012;51.998;7.614;2024-01-07T13:46:50;7.47;;;3.30;;
23670;SDS011;12012;51.998;7.614;2024-01-07T13:49:17;8.02;;;4.72;;
23670;SDS011;12012;51.998;7.614;2024-01-07T13:51:42;6.22;;;3.50;;
23670;SDS011;12012;51.998;7.614;2024-01-07T13:54:08;6.28;;;3.28;;
23670;SDS011;12012;51.998;7.614;2024-01-07T13:56:39;5.07;;;3.60;;
23670;SDS011;12012;51.998;7.614;2024-01-07T13:59:07;6.78;;;3.67;;
23670;SDS011;12012;51.998;7.614;2024-01-07T14:01:33;6.63;;;3.70;;
23670;SDS011;12012;51.998;7.614;2024-01-07T14:03:59;5.60;;;3.40;;
23670;SDS011;12012;51.998;7.614;2024-01-07T14:06:24;6.20;;;3.72;;
23670;SDS011;12012;51.998;7.614;2024-01-07T14:08:50;6.28;;;3.58;;
23670;SDS011;12012;51.998;7.614;2024-01-07T14:11:17;5.13;;;3.75;;
23670;SDS011;12012;51.998;7.614;2024-01-07T14:13:43;6.55;;;3.50;;
23670;SDS011;12012;51.998;7.614;2024-01-07T14:16:10;7.32;;;4.20;;
23670;SDS011;12012;51.998;7.614;2024-01-07T14:18:36;7.32;;;3.30;;
23670;SDS011;12012;51.998;7.614;2024-01-07T14:21:02;8.40;;;3.95;;
23670;SDS011;12012;51.998;7.614;2024-01-07T14:23:27;4.03;;;3.42;;
23670;SDS011;12012;51.998;7.614;2024-01-07T14:25:55;6.43;;;3.72;;
23670;SDS011;12012;51.998;7.614;2024-01-07T14:28:21;5.55;;;3.40;;
23670;SDS011;12012;51.998;7.614;2024-01-07T14:30:47;6.05;;;4.03;;
23670;SDS011;12012;51.998;7.614;2024-01-07T14:33:12;6.95;;;3.65;;
23670;SDS011;12012;51.998;7.614;2024-01-07T14:35:38;5.82;;;3.70;;
23670;SDS011;12012;51.998;7.614;2024-01-07T14:38:04;7.95;;;4.00;;